createdAt,value
2018-11-22T12:16:46.695Z,10.54
2018-11-22T12:19:23.450Z,10.57
2018-11-22T12:21:59.826Z,10.39
2018-11-22T12:41:51.296Z,10.21
2018-11-22T12:44:27.643Z,10.23
2018-11-22T12:47:04.006Z,9.97
2018-11-22T12:49:40.263Z,9.97
2018-11-22T12:52:16.794Z,9.80
2018-11-22T12:54:53.136Z,9.88
2018-11-22T12:57:29.500Z,9.82
2018-11-22T13:00:07.054Z,9.83
2018-11-22T13:02:43.824Z,9.75
2018-11-22T13:05:20.773Z,9.88
2018-11-22T13:07:57.057Z,9.79
2018-11-22T13:10:33.404Z,9.75
2018-11-22T13:13:09.902Z,9.53
2018-11-22T13:15:46.123Z,9.52
2018-11-22T13:18:22.309Z,9.51
2018-11-22T13:20:59.354Z,9.50
2018-11-22T13:23:35.667Z,9.51
2018-11-22T13:26:11.847Z,9.47
2018-11-22T13:28:48.102Z,9.43
2018-11-22T13:31:24.679Z,9.51
2018-11-22T13:34:01.119Z,9.34
2018-11-22T13:36:37.408Z,9.17
2018-11-22T13:39:13.849Z,8.61
2018-11-22T13:41:50.226Z,8.29
2018-11-22T13:44:26.725Z,8.03
2018-11-22T13:47:02.910Z,7.97
2018-11-22T13:49:39.265Z,7.95
2018-11-22T13:52:15.556Z,7.99
2018-11-22T13:54:51.739Z,8.11
2018-11-22T13:57:28.012Z,8.08
2018-11-22T14:00:04.341Z,8.14
2018-11-22T14:02:41.788Z,8.11
2018-11-22T14:05:18.163Z,8.02
2018-11-22T14:07:54.559Z,8.13
2018-11-22T14:10:30.829Z,8.13
2018-11-22T14:13:07.178Z,8.10
2018-11-22T14:15:43.407Z,7.93
2018-11-22T14:18:19.913Z,7.88
2018-11-22T14:20:56.433Z,7.92
2018-11-22T14:23:32.705Z,7.98
2018-11-22T14:26:09.002Z,8.00
2018-11-22T14:28:45.408Z,7.98
2018-11-22T14:31:21.948Z,7.91
2018-11-22T14:33:58.221Z,7.86
2018-11-22T14:36:34.531Z,7.83
2018-11-22T14:39:10.964Z,7.81
2018-11-22T14:41:47.303Z,7.86
2018-11-22T14:44:23.659Z,7.79
2018-11-22T14:47:00.189Z,7.78
2018-11-22T14:49:39.283Z,7.76
2018-11-22T14:52:15.771Z,7.97
2018-11-22T14:54:52.052Z,8.01
2018-11-22T14:57:28.623Z,7.84
2018-11-22T15:00:05.570Z,7.85
2018-11-22T15:02:43.435Z,7.70
2018-11-22T15:05:19.762Z,7.67
2018-11-22T15:07:56.200Z,7.63
2018-11-22T15:10:32.757Z,7.53
2018-11-22T15:13:08.867Z,7.72
2018-11-22T15:15:45.192Z,7.80
2018-11-22T15:18:21.679Z,7.65
2018-11-22T15:21:01.269Z,7.59
2018-11-22T15:23:34.679Z,7.44
2018-11-22T15:26:10.929Z,7.47
2018-11-22T15:28:47.021Z,7.17
2018-11-22T15:31:23.365Z,6.90
2018-11-22T15:33:59.899Z,6.81
2018-11-22T15:55:12.472Z,7.05
2018-11-22T15:57:50.026Z,7.07
2018-11-22T16:00:27.648Z,7.06
2018-11-22T16:03:04.723Z,7.12
2018-11-22T16:05:41.070Z,7.27
2018-11-22T16:08:17.532Z,7.30
2018-11-22T16:13:56.934Z,7.09
2018-11-22T16:16:33.311Z,6.93
2018-11-22T16:19:09.380Z,6.97
2018-11-22T16:21:45.677Z,7.02
2018-11-22T16:24:21.842Z,7.15
2018-11-22T16:26:58.224Z,7.16
2018-11-22T16:29:34.539Z,6.89
2018-11-22T16:32:10.576Z,6.91
2018-11-22T16:34:47.338Z,6.88
2018-11-22T16:37:23.639Z,6.88
2018-11-22T16:40:00.086Z,6.86
2018-11-22T16:42:36.356Z,6.86
2018-11-22T16:45:19.299Z,6.86
2018-11-22T16:47:56.203Z,6.98
2018-11-22T16:50:33.715Z,6.97
2018-11-22T16:53:09.772Z,6.96
2018-11-22T16:55:47.126Z,6.94
2018-11-22T16:58:23.550Z,6.92
2018-11-22T17:00:59.958Z,6.68
2018-11-22T17:03:36.227Z,6.55
2018-11-22T17:06:12.592Z,6.62
2018-11-22T17:08:49.337Z,6.44
2018-11-22T17:11:25.603Z,6.42
2018-11-22T17:14:01.623Z,6.39
2018-11-22T17:16:37.826Z,6.27
2018-11-22T17:19:14.083Z,6.29
2018-11-22T17:21:50.232Z,6.11
2018-11-22T17:24:26.571Z,6.14
2018-11-22T17:27:03.013Z,6.00
2018-11-22T17:29:39.301Z,6.04
2018-11-22T17:32:15.509Z,6.38
2018-11-22T17:34:51.706Z,6.43
2018-11-22T17:37:22.919Z,6.56
2018-11-22T17:39:54.318Z,6.76
2018-11-22T17:42:30.743Z,6.79
2018-11-22T17:45:02.143Z,6.76
2018-11-22T17:47:33.313Z,6.63
2018-11-22T17:51:29.016Z,6.51
2018-11-22T17:54:00.639Z,6.54
2018-11-22T17:56:31.765Z,6.54
2018-11-22T17:59:02.967Z,6.54
2018-11-22T18:01:34.051Z,6.48
2018-11-22T18:04:05.342Z,6.54
2018-11-22T18:06:36.755Z,6.46
2018-11-22T18:09:10.043Z,6.51
2018-11-22T18:11:41.586Z,6.33
2018-11-22T18:14:13.022Z,6.35
2018-11-22T18:16:44.485Z,6.26
2018-11-22T18:19:15.513Z,6.38
2018-11-22T18:21:46.943Z,6.31
2018-11-22T18:24:18.200Z,6.33
2018-11-22T18:26:50.768Z,6.40
2018-11-22T18:29:21.966Z,6.37
2018-11-22T18:31:53.682Z,6.39
2018-11-22T18:34:26.451Z,6.37
2018-11-22T18:36:57.599Z,6.21
2018-11-22T18:39:29.124Z,6.08
2018-11-22T18:42:00.794Z,6.07
2018-11-22T18:44:32.044Z,6.07
2018-11-22T18:47:03.785Z,5.96
2018-11-22T18:49:41.982Z,5.88
2018-11-22T18:52:13.284Z,5.78
2018-11-22T18:54:44.986Z,5.74
2018-11-22T18:57:16.179Z,5.67
2018-11-22T18:59:47.330Z,5.73
2018-11-22T19:02:19.351Z,5.71
2018-11-22T19:04:51.443Z,5.83
2018-11-22T19:07:22.761Z,5.89
2018-11-22T19:09:54.229Z,5.89
2018-11-22T19:12:25.555Z,6.00
2018-11-22T19:14:56.738Z,6.10
2018-11-22T19:17:28.168Z,6.18
2018-11-22T19:19:59.429Z,6.25
2018-11-22T19:22:31.071Z,6.32
2018-11-22T19:25:02.513Z,6.36
2018-11-22T19:27:33.690Z,6.42
2018-11-22T19:30:06.868Z,6.28
2018-11-22T19:32:38.098Z,6.17
2018-11-22T19:35:12.772Z,6.21
2018-11-22T19:37:44.147Z,6.20
2018-11-22T19:40:20.073Z,5.99
2018-11-22T19:42:52.680Z,6.12
2018-11-22T19:45:26.857Z,6.07
2018-11-22T19:47:58.181Z,6.15
2018-11-22T19:50:33.615Z,6.22
2018-11-22T19:53:06.879Z,6.16
2018-11-22T19:55:49.750Z,6.15
2018-11-22T19:58:21.271Z,6.21
2018-11-22T20:00:52.665Z,6.32
2018-11-22T20:03:26.807Z,6.21
2018-11-22T20:05:58.275Z,6.02
2018-11-22T20:08:29.518Z,5.81
2018-11-22T20:11:01.062Z,5.96
2018-11-22T20:13:32.804Z,6.07
2018-11-22T20:16:04.541Z,6.05
2018-11-22T20:18:36.682Z,6.15
2018-11-22T20:21:10.066Z,6.32
2018-11-22T20:23:44.192Z,6.34
2018-11-22T20:26:17.810Z,6.36
2018-11-22T20:28:51.261Z,6.29
2018-11-22T20:31:24.411Z,6.26
2018-11-22T20:33:59.215Z,5.95
2018-11-22T20:36:33.650Z,6.14
2018-11-22T20:39:17.934Z,6.01
2018-11-22T20:41:50.244Z,6.19
2018-11-22T20:44:21.851Z,6.14
2018-11-22T20:46:53.275Z,6.09
2018-11-22T20:49:24.835Z,6.10
2018-11-22T20:51:56.366Z,6.14
2018-11-22T20:54:28.982Z,6.05
2018-11-22T20:57:00.481Z,5.99
2018-11-22T20:59:38.461Z,5.99
2018-11-22T21:02:14.875Z,5.96
2018-11-22T21:04:51.230Z,5.96
2018-11-22T21:07:27.878Z,6.02
2018-11-22T21:10:07.507Z,6.06
2018-11-22T21:12:45.287Z,5.99
2018-11-22T21:15:24.711Z,5.96
2018-11-22T21:18:02.827Z,5.94
2018-11-22T21:20:41.414Z,6.04
2018-11-22T21:23:18.024Z,5.95
2018-11-22T21:25:54.624Z,5.81
2018-11-22T21:28:31.722Z,5.89
2018-11-22T21:31:09.054Z,5.86
2018-11-22T21:33:47.585Z,5.72
2018-11-22T21:36:23.967Z,5.88
2018-11-22T21:39:02.156Z,5.76
2018-11-22T21:41:40.237Z,5.71
2018-11-22T21:44:17.137Z,5.73
2018-11-22T21:46:53.272Z,5.83
2018-11-22T21:49:29.433Z,5.79
2018-11-22T21:52:06.976Z,5.80
2018-11-22T21:54:43.723Z,5.79
2018-11-22T21:57:20.373Z,5.86
2018-11-22T21:59:56.706Z,5.84
2018-11-22T22:02:32.782Z,5.74
2018-11-22T22:05:09.766Z,5.86
2018-11-22T22:07:46.107Z,5.73
2018-11-22T22:10:23.378Z,5.76
2018-11-22T22:12:59.945Z,5.86
2018-11-22T22:15:37.911Z,5.82
2018-11-22T22:18:21.020Z,5.69
2018-11-22T22:20:51.175Z,5.84
2018-11-22T22:23:27.542Z,5.78
2018-11-22T22:26:04.322Z,5.62
2018-11-22T22:28:41.521Z,5.63
2018-11-22T22:31:17.910Z,5.59
2018-11-22T22:33:54.817Z,5.60
2018-11-22T22:36:31.859Z,5.62
2018-11-22T22:39:11.477Z,5.50
2018-11-22T22:41:48.235Z,5.48
2018-11-22T22:44:25.566Z,5.26
2018-11-22T22:47:02.170Z,4.96
2018-11-22T22:49:38.618Z,4.90
2018-11-22T22:52:15.469Z,4.83
2018-11-22T22:54:53.665Z,4.94
2018-11-22T22:57:33.731Z,4.78
2018-11-22T23:00:26.014Z,4.65
2018-11-22T23:03:05.689Z,4.73
2018-11-22T23:05:42.261Z,4.69
2018-11-22T23:08:18.736Z,4.72
2018-11-22T23:10:58.544Z,4.76
2018-11-22T23:13:35.112Z,4.72
2018-11-22T23:16:11.729Z,4.93
2018-11-22T23:18:48.116Z,5.03
2018-11-22T23:21:24.615Z,5.35
2018-11-22T23:24:01.062Z,5.27
2018-11-22T23:26:37.751Z,5.04
2018-11-22T23:29:15.608Z,5.04
2018-11-22T23:31:52.118Z,5.13
2018-11-22T23:34:28.737Z,5.11
2018-11-22T23:37:05.779Z,5.13
2018-11-22T23:39:42.451Z,5.18
2018-11-22T23:42:19.022Z,5.22
2018-11-22T23:44:55.556Z,5.38
2018-11-22T23:47:31.918Z,5.44
2018-11-22T23:50:11.238Z,5.48
2018-11-22T23:52:48.884Z,5.48
2018-11-22T23:55:25.224Z,5.36
2018-11-22T23:58:02.107Z,5.42
